sensor_id;sensor_type;location;lat;lon;timestamp;temperature;humidity
9305;DHT22;4690;52.422;13.486;2023-04-25T00:04:27;8.50;99.90
9305;DHT22;4690;52.422;13.486;2023-04-25T00:06:53;8.50;99.90
9305;DHT22;4690;52.422;13.486;2023-04-25T00:09:19;8.50;99.90
9305;DHT22;4690;52.422;13.486;2023-04-25T00:11:45;8.40;99.90
9305;DHT22;4690;52.422;13.486;2023-04-25T00:14:11;8.40;99.90
9305;DHT22;4690;52.422;13.486;2023-04-25T00:16:37;8.40;99.90
9305;DHT22;4690;52.422;13.486;2023-04-25T00:19:02;8.40;99.90
9305;DHT22;4690;52.422;13.486;2023-04-25T00:21:28;8.40;99.90
9305;DHT22;4690;52.422;13.486;2023-04-25T00:23:56;8.40;99.90
9305;DHT22;4690;52.422;13.486;2023-04-25T00:26:22;8.40;99.90
9305;DHT22;4690;52.422;13.486;2023-04-25T00:28:48;8.40;99.90
9305;DHT22;4690;52.422;13.486;2023-04-25T00:31:14;8.40;99.90
9305;DHT22;4690;52.422;13.486;2023-04-25T00:33:40;8.40;99.90
9305;DHT22;4690;52.422;13.486;2023-04-25T00:36:06;8.30;99.90
9305;DHT22;4690;52.422;13.486;2023-04-25T00:38:33;8.30;99.90
9305;DHT22;4690;52.422;13.486;2023-04-25T00:40:59;8.40;99.90
9305;DHT22;4690;52.422;13.486;2023-04-25T00:43:28;8.40;99.90
9305;DHT22;4690;52.422;13.486;2023-04-25T00:45:57;8.30;99.90
9305;DHT22;4690;52.422;13.486;2023-04-25T00:48:25;8.40;99.90
9305;DHT22;4690;52.422;13.486;2023-04-25T00:50:53;8.40;99.90
9305;DHT22;4690;52.422;13.486;2023-04-25T00:53:21;8.30;99.90
9305;DHT22;4690;52.422;13.486;2023-04-25T00:55:48;8.40;99.90
9305;DHT22;4690;52.422;13.486;2023-04-25T00:58:20;8.30;99.90
9305;DHT22;4690;52.422;13.486;2023-04-25T01:00:47;8.40;99.90
9305;DHT22;4690;52.422;13.486;2023-04-25T01:03:15;8.40;99.90
9305;DHT22;4690;52.422;13.486;2023-04-25T01:05:43;8.40;99.90
9305;DHT22;4690;52.422;13.486;2023-04-25T01:08:09;8.50;99.90
9305;DHT22;4690;52.422;13.486;2023-04-25T01:10:36;8.50;99.90
9305;DHT22;4690;52.422;13.486;2023-04-25T01:13:03;8.50;99.90
9305;DHT22;4690;52.422;13.486;2023-04-25T01:15:29;8.60;99.90
9305;DHT22;4690;52.422;13.486;2023-04-25T01:17:55;8.60;99.90
9305;DHT22;4690;52.422;13.486;2023-04-25T01:20:22;8.60;99.90
9305;DHT22;4690;52.422;13.486;2023-04-25T01:22:51;8.60;99.90
9305;DHT22;4690;52.422;13.486;2023-04-25T01:25:18;8.60;99.90
9305;DHT22;4690;52.422;13.486;2023-04-25T01:27:46;8.60;99.90
9305;DHT22;4690;52.422;13.486;2023-04-25T01:30:13;8.60;99.90
9305;DHT22;4690;52.422;13.486;2023-04-25T01:32:41;8.60;99.90
9305;DHT22;4690;52.422;13.486;2023-04-25T01:35:10;8.60;99.90
9305;DHT22;4690;52.422;13.486;2023-04-25T01:40:07;8.60;99.90
9305;DHT22;4690;52.422;13.486;2023-04-25T01:42:36;8.60;99.90
9305;DHT22;4690;52.422;13.486;2023-04-25T01:45:03;8.60;99.90
9305;DHT22;4690;52.422;13.486;2023-04-25T01:47:30;8.60;99.90
9305;DHT22;4690;52.422;13.486;2023-04-25T01:49:56;8.50;99.90
9305;DHT22;4690;52.422;13.486;2023-04-25T01:52:22;8.50;99.90
9305;DHT22;4690;52.422;13.486;2023-04-25T01:54:48;8.50;99.90
9305;DHT22;4690;52.422;13.486;2023-04-25T01:57:15;8.50;99.90
9305;DHT22;4690;52.422;13.486;2023-04-25T01:59:42;8.50;99.90
9305;DHT22;4690;52.422;13.486;2023-04-25T02:02:08;8.50;99.90
9305;DHT22;4690;52.422;13.486;2023-04-25T02:04:34;8.50;99.90
9305;DHT22;4690;52.422;13.486;2023-04-25T02:07:00;8.40;99.90
9305;DHT22;4690;52.422;13.486;2023-04-25T02:09:25;8.40;99.90
9305;DHT22;4690;52.422;13.486;2023-04-25T02:11:52;8.40;99.90
9305;DHT22;4690;52.422;13.486;2023-04-25T02:14:18;8.40;99.90
9305;DHT22;4690;52.422;13.486;2023-04-25T02:16:44;8.30;99.90
9305;DHT22;4690;52.422;13.486;2023-04-25T02:19:10;8.40;99.90
9305;DHT22;4690;52.422;13.486;2023-04-25T02:21:36;8.30;99.90
9305;DHT22;4690;52.422;13.486;2023-04-25T02:24:03;8.30;99.90
9305;DHT22;4690;52.422;13.486;2023-04-25T02:26:29;8.30;99.90
9305;DHT22;4690;52.422;13.486;2023-04-25T02:28:56;8.30;99.90
9305;DHT22;4690;52.422;13.486;2023-04-25T02:31:22;8.30;99.90
9305;DHT22;4690;52.422;13.486;2023-04-25T02:33:48;8.30;99.90
9305;DHT22;4690;52.422;13.486;2023-04-25T02:36:14;8.30;99.90
9305;DHT22;4690;52.422;13.486;2023-04-25T02:38:40;8.30;99.90
9305;DHT22;4690;52.422;13.486;2023-04-25T02:41:06;8.30;99.90
9305;DHT22;4690;52.422;13.486;2023-04-25T02:43:32;8.30;99.90
9305;DHT22;4690;52.422;13.486;2023-04-25T02:45:57;8.30;99.90
9305;DHT22;4690;52.422;13.486;2023-04-25T02:48:23;8.30;99.90
9305;DHT22;4690;52.422;13.486;2023-04-25T02:50:49;8.20;99.90
9305;DHT22;4690;52.422;13.486;2023-04-25T02:53:15;8.20;99.90
9305;DHT22;4690;52.422;13.486;2023-04-25T02:55:40;8.20;99.90
9305;DHT22;4690;52.422;13.486;2023-04-25T02:58:06;8.20;99.90
9305;DHT22;4690;52.422;13.486;2023-04-25T03:00:32;8.20;99.90
9305;DHT22;4690;52.422;13.486;2023-04-25T03:02:58;8.20;99.90
9305;DHT22;4690;52.422;13.486;2023-04-25T03:05:24;8.20;99.90
9305;DHT22;4690;52.422;13.486;2023-04-25T03:07:50;8.20;99.90
9305;DHT22;4690;52.422;13.486;2023-04-25T03:10:15;8.20;99.90
9305;DHT22;4690;52.422;13.486;2023-04-25T03:12:41;8.20;99.90
9305;DHT22;4690;52.422;13.486;2023-04-25T03:15:07;8.20;99.90
9305;DHT22;4690;52.422;13.486;2023-04-25T03:17:33;8.20;99.90
9305;DHT22;4690;52.422;13.486;2023-04-25T03:19:59;8.20;99.90
9305;DHT22;4690;52.422;13.486;2023-04-25T03:22:25;8.20;99.90
9305;DHT22;4690;52.422;13.486;2023-04-25T03:24:50;8.20;99.90
9305;DHT22;4690;52.422;13.486;2023-04-25T03:27:17;8.20;99.90
9305;DHT22;4690;52.422;13.486;2023-04-25T03:29:43;8.20;99.90
9305;DHT22;4690;52.422;13.486;2023-04-25T03:32:08;8.20;99.90
9305;DHT22;4690;52.422;13.486;2023-04-25T03:34:34;8.20;99.90
9305;DHT22;4690;52.422;13.486;2023-04-25T03:37:00;8.20;99.90
9305;DHT22;4690;52.422;13.486;2023-04-25T03:39:26;8.20;99.90
9305;DHT22;4690;52.422;13.486;2023-04-25T03:41:52;8.20;99.90
9305;DHT22;4690;52.422;13.486;2023-04-25T03:44:18;8.20;99.90
9305;DHT22;4690;52.422;13.486;2023-04-25T03:46:43;8.20;99.90
9305;DHT22;4690;52.422;13.486;2023-04-25T03:49:09;8.20;99.90
9305;DHT22;4690;52.422;13.486;2023-04-25T03:51:35;8.20;99.90
9305;DHT22;4690;52.422;13.486;2023-04-25T03:54:00;8.20;99.90
9305;DHT22;4690;52.422;13.486;2023-04-25T03:56:26;8.30;99.90
9305;DHT22;4690;52.422;13.486;2023-04-25T03:58:52;8.20;99.90
9305;DHT22;4690;52.422;13.486;2023-04-25T04:01:18;8.30;99.90
9305;DHT22;4690;52.422;13.486;2023-04-25T04:03:44;8.30;99.90
9305;DHT22;4690;52.422;13.486;2023-04-25T04:06:10;8.30;99.90
9305;DHT22;4690;52.422;13.486;2023-04-25T04:08:36;8.30;99.90
9305;DHT22;4690;52.422;13.486;2023-04-25T04:11:01;8.30;99.90
9305;DHT22;4690;52.422;13.486;2023-04-25T04:13:28;8.30;99.90
9305;DHT22;4690;52.422;13.486;2023-04-25T04:15:55;8.30;99.90
9305;DHT22;4690;52.422;13.486;2023-04-25T04:18:21;8.30;99.90
9305;DHT22;4690;52.422;13.486;2023-04-25T04:20:47;8.30;99.90
9305;DHT22;4690;52.422;13.486;2023-04-25T04:23:13;8.30;99.90
9305;DHT22;4690;52.422;13.486;2023-04-25T04:25:39;8.30;99.90
9305;DHT22;4690;52.422;13.486;2023-04-25T04:28:06;8.30;99.90
9305;DHT22;4690;52.422;13.486;2023-04-25T04:30:32;8.30;99.90
9305;DHT22;4690;52.422;13.486;2023-04-25T04:33:02;8.30;99.90
9305;DHT22;4690;52.422;13.486;2023-04-25T04:35:28;8.30;99.90
9305;DHT22;4690;52.422;13.486;2023-04-25T04:37:54;8.30;99.90
9305;DHT22;4690;52.422;13.486;2023-04-25T04:40:21;8.30;99.90
9305;DHT22;4690;52.422;13.486;2023-04-25T04:42:47;8.30;99.90
9305;DHT22;4690;52.422;13.486;2023-04-25T04:45:14;8.30;99.90
9305;DHT22;4690;52.422;13.486;2023-04-25T04:47:40;8.30;99.90
9305;DHT22;4690;52.422;13.486;2023-04-25T04:50:07;8.20;99.90
9305;DHT22;4690;52.422;13.486;2023-04-25T04:52:38;8.20;99.90
9305;DHT22;4690;52.422;13.486;2023-04-25T04:55:05;8.20;99.90
9305;DHT22;4690;52.422;13.486;2023-04-25T04:57:31;8.30;99.90
9305;DHT22;4690;52.422;13.486;2023-04-25T04:59:58;8.30;99.90
9305;DHT22;4690;52.422;13.486;2023-04-25T05:02:25;8.30;99.90
9305;DHT22;4690;52.422;13.486;2023-04-25T05:04:51;8.30;99.90
9305;DHT22;4690;52.422;13.486;2023-04-25T05:07:18;8.30;99.90
9305;DHT22;4690;52.422;13.486;2023-04-25T05:09:44;8.30;99.90
9305;DHT22;4690;52.422;13.486;2023-04-25T05:12:10;8.40;99.90
9305;DHT22;4690;52.422;13.486;2023-04-25T05:14:36;8.40;99.90
9305;DHT22;4690;52.422;13.486;2023-04-25T05:17:01;8.50;99.90
9305;DHT22;4690;52.422;13.486;2023-04-25T05:19:30;8.40;99.90
9305;DHT22;4690;52.422;13.486;2023-04-25T05:21:56;8.40;99.90
9305;DHT22;4690;52.422;13.486;2023-04-25T05:24:21;8.40;99.90
9305;DHT22;4690;52.422;13.486;2023-04-25T05:26:47;8.50;99.90
9305;DHT22;4690;52.422;13.486;2023-04-25T05:29:13;8.50;99.90
9305;DHT22;4690;52.422;13.486;2023-04-25T05:31:39;8.50;99.90
9305;DHT22;4690;52.422;13.486;2023-04-25T05:34:04;8.50;99.90
9305;DHT22;4690;52.422;13.486;2023-04-25T05:36:31;8.50;99.90
9305;DHT22;4690;52.422;13.486;2023-04-25T05:38:57;8.50;99.90
9305;DHT22;4690;52.422;13.486;2023-04-25T05:41:23;8.50;99.90
9305;DHT22;4690;52.422;13.486;2023-04-25T05:43:49;8.50;99.90
9305;DHT22;4690;52.422;13.486;2023-04-25T05:46:15;8.50;99.90
9305;DHT22;4690;52.422;13.486;2023-04-25T05:48:45;8.60;99.90
9305;DHT22;4690;52.422;13.486;2023-04-25T05:51:10;8.60;99.90
9305;DHT22;4690;52.422;13.486;2023-04-25T05:53:36;8.70;99.90
9305;DHT22;4690;52.422;13.486;2023-04-25T05:56:02;8.70;99.90
9305;DHT22;4690;52.422;13.486;2023-04-25T05:58:28;8.80;99.90
9305;DHT22;4690;52.422;13.486;2023-04-25T06:00:54;8.80;99.90
9305;DHT22;4690;52.422;13.486;2023-04-25T06:03:20;8.80;99.90
9305;DHT22;4690;52.422;13.486;2023-04-25T06:05:46;8.80;99.90
9305;DHT22;4690;52.422;13.486;2023-04-25T06:08:12;8.80;99.90
9305;DHT22;4690;52.422;13.486;2023-04-25T06:10:38;8.80;99.90
9305;DHT22;4690;52.422;13.486;2023-04-25T06:13:04;8.80;99.90
9305;DHT22;4690;52.422;13.486;2023-04-25T06:15:31;8.80;99.90
9305;DHT22;4690;52.422;13.486;2023-04-25T06:17:58;8.80;99.90
9305;DHT22;4690;52.422;13.486;2023-04-25T06:20:23;8.80;99.90
9305;DHT22;4690;52.422;13.486;2023-04-25T06:22:50;8.80;99.90
9305;DHT22;4690;52.422;13.486;2023-04-25T06:25:20;8.80;99.90
9305;DHT22;4690;52.422;13.486;2023-04-25T06:27:45;8.80;99.90
9305;DHT22;4690;52.422;13.486;2023-04-25T06:30:11;8.80;99.90
9305;DHT22;4690;52.422;13.486;2023-04-25T06:32:38;8.80;99.90
9305;DHT22;4690;52.422;13.486;2023-04-25T06:35:04;8.80;99.90
9305;DHT22;4690;52.422;13.486;2023-04-25T06:37:31;8.80;99.90
9305;DHT22;4690;52.422;13.486;2023-04-25T06:39:56;8.80;99.90
9305;DHT22;4690;52.422;13.486;2023-04-25T06:42:22;8.90;99.90
9305;DHT22;4690;52.422;13.486;2023-04-25T06:44:48;8.90;99.90
9305;DHT22;4690;52.422;13.486;2023-04-25T06:47:14;8.90;99.90
9305;DHT22;4690;52.422;13.486;2023-04-25T06:49:40;9.00;99.90
9305;DHT22;4690;52.422;13.486;2023-04-25T06:52:06;8.90;99.90
9305;DHT22;4690;52.422;13.486;2023-04-25T06:54:32;9.00;99.90
9305;DHT22;4690;52.422;13.486;2023-04-25T06:56:58;9.00;99.90
9305;DHT22;4690;52.422;13.486;2023-04-25T06:59:26;9.10;99.90
9305;DHT22;4690;52.422;13.486;2023-04-25T07:01:52;9.10;99.90
9305;DHT22;4690;52.422;13.486;2023-04-25T07:04:18;9.10;99.90
9305;DHT22;4690;52.422;13.486;2023-04-25T07:06:43;9.10;99.90
9305;DHT22;4690;52.422;13.486;2023-04-25T07:09:10;9.00;99.90
9305;DHT22;4690;52.422;13.486;2023-04-25T07:11:36;9.00;99.90
9305;DHT22;4690;52.422;13.486;2023-04-25T07:14:02;9.10;99.90
9305;DHT22;4690;52.422;13.486;2023-04-25T07:16:28;9.00;99.90
9305;DHT22;4690;52.422;13.486;2023-04-25T07:18:54;9.10;99.90
9305;DHT22;4690;52.422;13.486;2023-04-25T07:21:20;9.10;99.90
9305;DHT22;4690;52.422;13.486;2023-04-25T07:23:45;9.10;99.90
9305;DHT22;4690;52.422;13.486;2023-04-25T07:26:12;9.10;99.90
9305;DHT22;4690;52.422;13.486;2023-04-25T07:28:38;9.10;99.90
9305;DHT22;4690;52.422;13.486;2023-04-25T07:31:04;9.00;99.90
9305;DHT22;4690;52.422;13.486;2023-04-25T07:33:30;9.00;99.90
9305;DHT22;4690;52.422;13.486;2023-04-25T07:35:56;8.80;99.90
9305;DHT22;4690;52.422;13.486;2023-04-25T07:38:22;8.90;99.90
9305;DHT22;4690;52.422;13.486;2023-04-25T07:40:51;8.80;99.90
9305;DHT22;4690;52.422;13.486;2023-04-25T07:43:17;8.80;99.90
9305;DHT22;4690;52.422;13.486;2023-04-25T07:45:46;8.80;99.90
9305;DHT22;4690;52.422;13.486;2023-04-25T07:48:17;8.80;99.90
9305;DHT22;4690;52.422;13.486;2023-04-25T07:50:46;8.80;99.90
9305;DHT22;4690;52.422;13.486;2023-04-25T07:53:12;8.70;99.90
9305;DHT22;4690;52.422;13.486;2023-04-25T07:55:38;8.60;99.90
9305;DHT22;4690;52.422;13.486;2023-04-25T07:58:06;8.60;99.90
9305;DHT22;4690;52.422;13.486;2023-04-25T08:00:32;8.60;99.90
9305;DHT22;4690;52.422;13.486;2023-04-25T08:02:58;8.70;99.90
9305;DHT22;4690;52.422;13.486;2023-04-25T08:05:23;8.70;99.90
9305;DHT22;4690;52.422;13.486;2023-04-25T08:07:49;8.70;99.90
9305;DHT22;4690;52.422;13.486;2023-04-25T08:10:15;8.70;99.90
9305;DHT22;4690;52.422;13.486;2023-04-25T08:12:41;8.70;99.90
9305;DHT22;4690;52.422;13.486;2023-04-25T08:15:09;8.70;99.90
9305;DHT22;4690;52.422;13.486;2023-04-25T08:17:35;8.80;99.90
9305;DHT22;4690;52.422;13.486;2023-04-25T08:20:01;8.80;99.90
9305;DHT22;4690;52.422;13.486;2023-04-25T08:22:29;8.80;99.90
9305;DHT22;4690;52.422;13.486;2023-04-25T08:24:55;8.80;99.90
9305;DHT22;4690;52.422;13.486;2023-04-25T08:27:21;8.90;99.90
9305;DHT22;4690;52.422;13.486;2023-04-25T08:29:47;9.00;99.90
9305;DHT22;4690;52.422;13.486;2023-04-25T08:32:13;9.10;99.90
9305;DHT22;4690;52.422;13.486;2023-04-25T08:34:39;9.10;99.90
9305;DHT22;4690;52.422;13.486;2023-04-25T08:37:08;9.20;99.90
9305;DHT22;4690;52.422;13.486;2023-04-25T08:39:35;9.10;99.90
9305;DHT22;4690;52.422;13.486;2023-04-25T08:42:06;9.30;99.90
9305;DHT22;4690;52.422;13.486;2023-04-25T08:44:36;9.50;99.90
9305;DHT22;4690;52.422;13.486;2023-04-25T08:47:05;9.70;99.90
9305;DHT22;4690;52.422;13.486;2023-04-25T08:49:32;9.70;99.90
9305;DHT22;4690;52.422;13.486;2023-04-25T08:52:01;9.80;99.90
9305;DHT22;4690;52.422;13.486;2023-04-25T08:54:31;9.90;99.90
9305;DHT22;4690;52.422;13.486;2023-04-25T08:57:00;10.00;99.90
9305;DHT22;4690;52.422;13.486;2023-04-25T08:59:30;9.90;99.90
9305;DHT22;4690;52.422;13.486;2023-04-25T09:01:57;9.90;99.90
9305;DHT22;4690;52.422;13.486;2023-04-25T09:04:23;10.00;99.90
9305;DHT22;4690;52.422;13.486;2023-04-25T09:06:48;10.20;99.90
9305;DHT22;4690;52.422;13.486;2023-04-25T09:09:14;10.30;99.90
9305;DHT22;4690;52.422;13.486;2023-04-25T09:11:41;10.30;99.90
9305;DHT22;4690;52.422;13.486;2023-04-25T09:14:17;10.30;99.90
9305;DHT22;4690;52.422;13.486;2023-04-25T09:21:50;10.80;99.90
9305;DHT22;4690;52.422;13.486;2023-04-25T09:24:19;10.70;99.90
9305;DHT22;4690;52.422;13.486;2023-04-25T09:26:56;11.00;99.90
9305;DHT22;4690;52.422;13.486;2023-04-25T09:29:32;11.70;99.90
9305;DHT22;4690;52.422;13.486;2023-04-25T09:34:42;13.00;99.90
9305;DHT22;4690;52.422;13.486;2023-04-25T09:37:10;12.80;99.90
9305;DHT22;4690;52.422;13.486;2023-04-25T09:39:39;13.10;99.90
9305;DHT22;4690;52.422;13.486;2023-04-25T09:42:05;13.10;99.90
9305;DHT22;4690;52.422;13.486;2023-04-25T09:44:31;12.70;99.90
9305;DHT22;4690;52.422;13.486;2023-04-25T09:46:57;12.30;99.90
9305;DHT22;4690;52.422;13.486;2023-04-25T09:49:25;12.20;99.90
9305;DHT22;4690;52.422;13.486;2023-04-25T09:51:59;12.30;99.90
9305;DHT22;4690;52.422;13.486;2023-04-25T09:54:26;12.90;99.90
9305;DHT22;4690;52.422;13.486;2023-04-25T09:56:52;13.00;99.90
9305;DHT22;4690;52.422;13.486;2023-04-25T09:59:22;12.70;99.90
9305;DHT22;4690;52.422;13.486;2023-04-25T10:01:49;12.40;99.90
9305;DHT22;4690;52.422;13.486;2023-04-25T10:04:19;12.20;99.90
9305;DHT22;4690;52.422;13.486;2023-04-25T10:06:49;11.90;99.90
9305;DHT22;4690;52.422;13.486;2023-04-25T10:09:20;11.90;99.90
9305;DHT22;4690;52.422;13.486;2023-04-25T10:11:50;11.90;99.90
9305;DHT22;4690;52.422;13.486;2023-04-25T10:14:18;11.80;99.90
9305;DHT22;4690;52.422;13.486;2023-04-25T10:16:45;11.70;99.90
9305;DHT22;4690;52.422;13.486;2023-04-25T10:19:11;11.70;99.90
9305;DHT22;4690;52.422;13.486;2023-04-25T10:21:44;11.60;99.90
9305;DHT22;4690;52.422;13.486;2023-04-25T10:24:15;11.40;99.90
9305;DHT22;4690;52.422;13.486;2023-04-25T10:26:41;11.20;99.90
9305;DHT22;4690;52.422;13.486;2023-04-25T10:29:09;11.20;99.90
9305;DHT22;4690;52.422;13.486;2023-04-25T10:31:45;11.30;99.90
9305;DHT22;4690;52.422;13.486;2023-04-25T10:34:12;11.20;99.90
9305;DHT22;4690;52.422;13.486;2023-04-25T10:36:38;11.20;99.90
9305;DHT22;4690;52.422;13.486;2023-04-25T10:39:05;11.30;99.90
9305;DHT22;4690;52.422;13.486;2023-04-25T10:42:07;11.20;99.90
9305;DHT22;4690;52.422;13.486;2023-04-25T10:44:33;11.20;99.90
9305;DHT22;4690;52.422;13.486;2023-04-25T10:47:02;11.20;99.90
9305;DHT22;4690;52.422;13.486;2023-04-25T10:49:41;11.30;99.90
9305;DHT22;4690;52.422;13.486;2023-04-25T10:52:18;11.40;99.90
9305;DHT22;4690;52.422;13.486;2023-04-25T10:54:55;11.70;99.90
9305;DHT22;4690;52.422;13.486;2023-04-25T11:00:10;11.90;99.90
9305;DHT22;4690;52.422;13.486;2023-04-25T11:02:41;11.90;99.90
9305;DHT22;4690;52.422;13.486;2023-04-25T11:08:00;11.40;99.90
9305;DHT22;4690;52.422;13.486;2023-04-25T11:10:30;11.20;99.90
9305;DHT22;4690;52.422;13.486;2023-04-25T11:12:58;11.20;99.90
9305;DHT22;4690;52.422;13.486;2023-04-25T11:15:25;11.30;99.90
9305;DHT22;4690;52.422;13.486;2023-04-25T11:17:55;11.20;99.90
9305;DHT22;4690;52.422;13.486;2023-04-25T11:20:22;11.30;99.90
9305;DHT22;4690;52.422;13.486;2023-04-25T11:22:51;11.30;99.90
9305;DHT22;4690;52.422;13.486;2023-04-25T11:25:17;11.20;99.90
9305;DHT22;4690;52.422;13.486;2023-04-25T11:27:53;11.20;99.90
9305;DHT22;4690;52.422;13.486;2023-04-25T11:30:22;11.30;99.90
9305;DHT22;4690;52.422;13.486;2023-04-25T11:32:49;11.20;99.90
9305;DHT22;4690;52.422;13.486;2023-04-25T11:35:15;11.00;99.90
9305;DHT22;4690;52.422;13.486;2023-04-25T11:37:42;10.90;99.90
9305;DHT22;4690;52.422;13.486;2023-04-25T11:40:09;10.90;99.90
9305;DHT22;4690;52.422;13.486;2023-04-25T11:42:37;11.00;99.90
9305;DHT22;4690;52.422;13.486;2023-04-25T11:45:04;11.00;99.90
9305;DHT22;4690;52.422;13.486;2023-04-25T11:47:32;10.90;99.90
9305;DHT22;4690;52.422;13.486;2023-04-25T11:50:00;10.60;99.90
9305;DHT22;4690;52.422;13.486;2023-04-25T11:52:43;10.50;99.90
9305;DHT22;4690;52.422;13.486;2023-04-25T11:55:14;10.50;99.90
9305;DHT22;4690;52.422;13.486;2023-04-25T11:57:46;10.40;99.90
9305;DHT22;4690;52.422;13.486;2023-04-25T12:00:16;10.20;99.90
9305;DHT22;4690;52.422;13.486;2023-04-25T12:02:50;10.20;99.90
9305;DHT22;4690;52.422;13.486;2023-04-25T12:05:18;10.20;99.90
9305;DHT22;4690;52.422;13.486;2023-04-25T12:07:45;10.30;99.90
9305;DHT22;4690;52.422;13.486;2023-04-25T12:10:14;10.40;99.90
9305;DHT22;4690;52.422;13.486;2023-04-25T12:12:45;10.40;99.50
9305;DHT22;4690;52.422;13.486;2023-04-25T12:17:51;10.60;99.90
9305;DHT22;4690;52.422;13.486;2023-04-25T12:20:20;10.60;99.90
9305;DHT22;4690;52.422;13.486;2023-04-25T12:22:50;10.60;99.90
9305;DHT22;4690;52.422;13.486;2023-04-25T12:28:18;10.50;99.90
9305;DHT22;4690;52.422;13.486;2023-04-25T12:33:34;10.40;99.90
9305;DHT22;4690;52.422;13.486;2023-04-25T12:36:02;10.60;99.90
9305;DHT22;4690;52.422;13.486;2023-04-25T12:38:36;10.60;99.90
9305;DHT22;4690;52.422;13.486;2023-04-25T12:41:03;10.60;99.90
9305;DHT22;4690;52.422;13.486;2023-04-25T12:43:29;10.50;99.90
9305;DHT22;4690;52.422;13.486;2023-04-25T12:45:56;10.50;99.90
9305;DHT22;4690;52.422;13.486;2023-04-25T12:48:22;10.50;99.90
9305;DHT22;4690;52.422;13.486;2023-04-25T12:50:50;10.50;99.90
9305;DHT22;4690;52.422;13.486;2023-04-25T12:53:20;10.70;99.90
9305;DHT22;4690;52.422;13.486;2023-04-25T12:55:48;10.80;99.90
9305;DHT22;4690;52.422;13.486;2023-04-25T12:58:18;11.00;99.70
9305;DHT22;4690;52.422;13.486;2023-04-25T13:00:45;11.20;99.90
9305;DHT22;4690;52.422;13.486;2023-04-25T13:03:24;11.30;99.60
9305;DHT22;4690;52.422;13.486;2023-04-25T13:05:50;11.00;99.90
9305;DHT22;4690;52.422;13.486;2023-04-25T13:08:18;11.00;99.90
9305;DHT22;4690;52.422;13.486;2023-04-25T13:10:44;11.00;99.90
9305;DHT22;4690;52.422;13.486;2023-04-25T13:13:10;10.90;99.90
9305;DHT22;4690;52.422;13.486;2023-04-25T13:15:36;10.90;99.90
9305;DHT22;4690;52.422;13.486;2023-04-25T13:18:03;10.70;99.90
9305;DHT22;4690;52.422;13.486;2023-04-25T13:20:31;10.60;99.90
9305;DHT22;4690;52.422;13.486;2023-04-25T13:22:57;10.50;99.90
9305;DHT22;4690;52.422;13.486;2023-04-25T13:25:22;10.70;99.90
9305;DHT22;4690;52.422;13.486;2023-04-25T13:27:48;10.60;99.90
9305;DHT22;4690;52.422;13.486;2023-04-25T13:30:14;10.70;99.70
9305;DHT22;4690;52.422;13.486;2023-04-25T13:32:40;10.90;99.80
9305;DHT22;4690;52.422;13.486;2023-04-25T13:35:11;11.50;99.90
9305;DHT22;4690;52.422;13.486;2023-04-25T13:37:39;11.60;99.50
9305;DHT22;4690;52.422;13.486;2023-04-25T13:40:07;11.60;99.10
9305;DHT22;4690;52.422;13.486;2023-04-25T13:42:35;11.40;98.40
9305;DHT22;4690;52.422;13.486;2023-04-25T13:45:02;11.30;98.20
9305;DHT22;4690;52.422;13.486;2023-04-25T13:47:29;11.20;98.00
9305;DHT22;4690;52.422;13.486;2023-04-25T13:49:56;11.20;99.60
9305;DHT22;4690;52.422;13.486;2023-04-25T13:52:22;11.20;99.40
9305;DHT22;4690;52.422;13.486;2023-04-25T13:54:50;11.10;99.10
9305;DHT22;4690;52.422;13.486;2023-04-25T13:57:16;11.10;99.90
9305;DHT22;4690;52.422;13.486;2023-04-25T13:59:43;11.10;99.30
9305;DHT22;4690;52.422;13.486;2023-04-25T14:02:09;11.20;99.90
9305;DHT22;4690;52.422;13.486;2023-04-25T14:04:34;11.40;99.90
9305;DHT22;4690;52.422;13.486;2023-04-25T14:07:01;11.60;99.90
9305;DHT22;4690;52.422;13.486;2023-04-25T14:09:28;11.50;99.10
9305;DHT22;4690;52.422;13.486;2023-04-25T14:11:55;11.30;99.60
9305;DHT22;4690;52.422;13.486;2023-04-25T14:14:22;11.10;99.90
9305;DHT22;4690;52.422;13.486;2023-04-25T14:16:49;11.10;99.90
9305;DHT22;4690;52.422;13.486;2023-04-25T14:19:16;11.00;99.90
9305;DHT22;4690;52.422;13.486;2023-04-25T14:21:43;10.90;99.90
9305;DHT22;4690;52.422;13.486;2023-04-25T14:24:09;10.80;99.90
9305;DHT22;4690;52.422;13.486;2023-04-25T14:26:36;10.80;99.90
9305;DHT22;4690;52.422;13.486;2023-04-25T14:29:03;10.60;99.90
9305;DHT22;4690;52.422;13.486;2023-04-25T14:31:31;10.40;99.90
9305;DHT22;4690;52.422;13.486;2023-04-25T14:33:57;10.40;99.90
9305;DHT22;4690;52.422;13.486;2023-04-25T14:36:23;10.40;99.90
9305;DHT22;4690;52.422;13.486;2023-04-25T14:38:48;10.40;99.20
9305;DHT22;4690;52.422;13.486;2023-04-25T14:41:14;10.30;99.90
9305;DHT22;4690;52.422;13.486;2023-04-25T14:43:40;10.20;99.90
9305;DHT22;4690;52.422;13.486;2023-04-25T14:46:06;10.10;99.90
9305;DHT22;4690;52.422;13.486;2023-04-25T14:48:32;10.10;99.90
9305;DHT22;4690;52.422;13.486;2023-04-25T14:50:59;10.10;99.90
9305;DHT22;4690;52.422;13.486;2023-04-25T14:53:26;10.10;98.70
9305;DHT22;4690;52.422;13.486;2023-04-25T14:55:53;10.10;99.90
9305;DHT22;4690;52.422;13.486;2023-04-25T14:58:19;10.10;99.90
9305;DHT22;4690;52.422;13.486;2023-04-25T15:00:45;10.20;99.90
9305;DHT22;4690;52.422;13.486;2023-04-25T15:03:12;10.20;99.90
9305;DHT22;4690;52.422;13.486;2023-04-25T15:05:39;10.30;99.80
9305;DHT22;4690;52.422;13.486;2023-04-25T15:08:05;10.30;99.60
9305;DHT22;4690;52.422;13.486;2023-04-25T15:10:31;10.60;99.90
9305;DHT22;4690;52.422;13.486;2023-04-25T15:12:57;10.70;99.90
9305;DHT22;4690;52.422;13.486;2023-04-25T15:15:23;10.70;99.90
9305;DHT22;4690;52.422;13.486;2023-04-25T15:17:49;10.60;99.90
9305;DHT22;4690;52.422;13.486;2023-04-25T15:20:16;10.70;99.90
9305;DHT22;4690;52.422;13.486;2023-04-25T15:22:43;10.60;99.90
9305;DHT22;4690;52.422;13.486;2023-04-25T15:25:11;10.40;99.90
9305;DHT22;4690;52.422;13.486;2023-04-25T15:27:37;10.40;99.90
9305;DHT22;4690;52.422;13.486;2023-04-25T15:30:07;10.40;99.90
9305;DHT22;4690;52.422;13.486;2023-04-25T15:32:36;10.40;99.90
9305;DHT22;4690;52.422;13.486;2023-04-25T15:35:04;10.40;99.90
9305;DHT22;4690;52.422;13.486;2023-04-25T15:37:32;10.30;99.90
9305;DHT22;4690;52.422;13.486;2023-04-25T15:40:07;10.30;99.90
9305;DHT22;4690;52.422;13.486;2023-04-25T15:42:37;10.50;99.90
9305;DHT22;4690;52.422;13.486;2023-04-25T15:45:05;10.60;99.90
9305;DHT22;4690;52.422;13.486;2023-04-25T15:47:34;10.60;99.90
9305;DHT22;4690;52.422;13.486;2023-04-25T15:50:01;10.70;99.90
9305;DHT22;4690;52.422;13.486;2023-04-25T15:52:29;10.60;99.90
9305;DHT22;4690;52.422;13.486;2023-04-25T15:54:55;10.50;99.90
9305;DHT22;4690;52.422;13.486;2023-04-25T15:57:21;10.50;99.90
9305;DHT22;4690;52.422;13.486;2023-04-25T15:59:48;10.40;99.90
9305;DHT22;4690;52.422;13.486;2023-04-25T16:02:15;10.40;99.90
9305;DHT22;4690;52.422;13.486;2023-04-25T16:04:42;10.30;99.90
9305;DHT22;4690;52.422;13.486;2023-04-25T16:07:08;10.30;99.90
9305;DHT22;4690;52.422;13.486;2023-04-25T16:09:35;10.20;99.90
9305;DHT22;4690;52.422;13.486;2023-04-25T16:12:02;10.20;99.90
9305;DHT22;4690;52.422;13.486;2023-04-25T16:14:28;10.20;99.90
9305;DHT22;4690;52.422;13.486;2023-04-25T16:16:55;10.10;99.90
9305;DHT22;4690;52.422;13.486;2023-04-25T16:19:21;10.10;99.90
9305;DHT22;4690;52.422;13.486;2023-04-25T16:21:47;10.10;99.90